sensor_id;sensor_type;location;lat;lon;timestamp;temperature;humidity
429;DHT22;201;48.758;9.290;2023-03-20T00:00:10;9.20;20.70
429;DHT22;201;48.758;9.290;2023-03-20T00:02:38;9.20;19.90
429;DHT22;201;48.758;9.290;2023-03-20T00:05:15;9.20;19.40
429;DHT22;201;48.758;9.290;2023-03-20T00:07:43;9.20;18.90
429;DHT22;201;48.758;9.290;2023-03-20T00:10:09;9.20;18.30
429;DHT22;201;48.758;9.290;2023-03-20T00:12:35;9.20;18.30
429;DHT22;201;48.758;9.290;2023-03-20T00:15:02;9.20;17.80
429;DHT22;201;48.758;9.290;2023-03-20T00:17:29;9.20;17.40
429;DHT22;201;48.758;9.290;2023-03-20T00:19:54;9.10;17.20
429;DHT22;201;48.758;9.290;2023-03-20T00:22:20;9.20;17.40
429;DHT22;201;48.758;9.290;2023-03-20T00:24:46;9.20;17.30
429;DHT22;201;48.758;9.290;2023-03-20T00:27:14;9.10;17.10
429;DHT22;201;48.758;9.290;2023-03-20T00:29:40;9.20;17.10
429;DHT22;201;48.758;9.290;2023-03-20T00:32:13;9.20;17.20
429;DHT22;201;48.758;9.290;2023-03-20T00:34:40;9.20;17.20
429;DHT22;201;48.758;9.290;2023-03-20T00:37:05;9.20;16.80
429;DHT22;201;48.758;9.290;2023-03-20T00:39:31;9.10;16.90
429;DHT22;201;48.758;9.290;2023-03-20T00:42:00;9.10;17.30
429;DHT22;201;48.758;9.290;2023-03-20T00:47:03;9.20;17.30
429;DHT22;201;48.758;9.290;2023-03-20T00:49:32;9.20;17.40
429;DHT22;201;48.758;9.290;2023-03-20T00:51:59;9.10;17.30
429;DHT22;201;48.758;9.290;2023-03-20T00:54:26;9.10;18.20
429;DHT22;201;48.758;9.290;2023-03-20T00:57:00;9.20;18.30
429;DHT22;201;48.758;9.290;2023-03-20T00:59:30;9.30;18.30
429;DHT22;201;48.758;9.290;2023-03-20T01:01:58;9.40;18.40
429;DHT22;201;48.758;9.290;2023-03-20T01:04:32;9.40;18.40
429;DHT22;201;48.758;9.290;2023-03-20T01:06:58;9.50;18.50
429;DHT22;201;48.758;9.290;2023-03-20T01:09:24;9.40;18.40
429;DHT22;201;48.758;9.290;2023-03-20T01:11:49;9.50;18.50
429;DHT22;201;48.758;9.290;2023-03-20T01:14:15;9.50;18.50
429;DHT22;201;48.758;9.290;2023-03-20T01:16:41;9.40;18.40
429;DHT22;201;48.758;9.290;2023-03-20T01:19:13;9.30;17.90
429;DHT22;201;48.758;9.290;2023-03-20T01:21:40;9.30;17.40
429;DHT22;201;48.758;9.290;2023-03-20T01:24:06;9.20;17.10
429;DHT22;201;48.758;9.290;2023-03-20T01:26:41;9.20;17.10
429;DHT22;201;48.758;9.290;2023-03-20T01:29:21;9.30;16.90
429;DHT22;201;48.758;9.290;2023-03-20T01:31:48;9.30;16.60
429;DHT22;201;48.758;9.290;2023-03-20T01:34:14;9.20;16.10
429;DHT22;201;48.758;9.290;2023-03-20T01:36:49;9.20;15.50
429;DHT22;201;48.758;9.290;2023-03-20T01:39:15;9.00;14.60
429;DHT22;201;48.758;9.290;2023-03-20T01:41:42;8.90;14.40
429;DHT22;201;48.758;9.290;2023-03-20T01:44:29;8.90;14.50
429;DHT22;201;48.758;9.290;2023-03-20T01:46:55;8.80;14.70
429;DHT22;201;48.758;9.290;2023-03-20T01:51:47;8.80;15.20
429;DHT22;201;48.758;9.290;2023-03-20T01:59:40;8.90;14.60
429;DHT22;201;48.758;9.290;2023-03-20T02:02:08;9.00;14.50
429;DHT22;201;48.758;9.290;2023-03-20T02:04:41;9.00;13.90
429;DHT22;201;48.758;9.290;2023-03-20T02:07:09;9.00;13.90
429;DHT22;201;48.758;9.290;2023-03-20T02:09:35;9.10;13.80
429;DHT22;201;48.758;9.290;2023-03-20T02:12:02;9.00;13.10
429;DHT22;201;48.758;9.290;2023-03-20T02:14:28;9.10;12.80
429;DHT22;201;48.758;9.290;2023-03-20T02:16:54;9.10;12.70
429;DHT22;201;48.758;9.290;2023-03-20T02:28:17;9.20;11.30
429;DHT22;201;48.758;9.290;2023-03-20T02:31:14;9.20;10.60
429;DHT22;201;48.758;9.290;2023-03-20T02:42:07;9.30;9.80
429;DHT22;201;48.758;9.290;2023-03-20T02:44:43;9.20;9.80
429;DHT22;201;48.758;9.290;2023-03-20T02:47:17;9.20;10.40
429;DHT22;201;48.758;9.290;2023-03-20T02:52:58;9.20;9.80
429;DHT22;201;48.758;9.290;2023-03-20T02:55:48;9.20;9.80
429;DHT22;201;48.758;9.290;2023-03-20T02:58:32;9.10;9.70
429;DHT22;201;48.758;9.290;2023-03-20T03:01:22;9.10;9.70
429;DHT22;201;48.758;9.290;2023-03-20T03:03:58;9.00;9.60
429;DHT22;201;48.758;9.290;2023-03-20T03:06:30;8.90;10.10
429;DHT22;201;48.758;9.290;2023-03-20T03:09:06;9.00;9.60
429;DHT22;201;48.758;9.290;2023-03-20T03:11:39;8.90;9.50
429;DHT22;201;48.758;9.290;2023-03-20T03:14:06;9.00;9.60
429;DHT22;201;48.758;9.290;2023-03-20T03:16:37;9.00;9.60
429;DHT22;201;48.758;9.290;2023-03-20T03:19:08;9.10;9.70
429;DHT22;201;48.758;9.290;2023-03-20T03:21:36;9.10;9.70
429;DHT22;201;48.758;9.290;2023-03-20T03:24:03;9.20;9.80
429;DHT22;201;48.758;9.290;2023-03-20T03:26:36;9.20;9.80
429;DHT22;201;48.758;9.290;2023-03-20T03:29:10;9.20;9.80
429;DHT22;201;48.758;9.290;2023-03-20T03:31:37;9.30;9.80
429;DHT22;201;48.758;9.290;2023-03-20T03:34:03;9.30;9.80
429;DHT22;201;48.758;9.290;2023-03-20T03:36:53;9.30;9.80
429;DHT22;201;48.758;9.290;2023-03-20T03:42:36;9.30;8.50
429;DHT22;201;48.758;9.290;2023-03-20T03:47:45;9.20;7.60
429;DHT22;201;48.758;9.290;2023-03-20T03:50:24;9.20;7.90
429;DHT22;201;48.758;9.290;2023-03-20T03:52:53;9.10;7.90
429;DHT22;201;48.758;9.290;2023-03-20T03:55:25;9.20;7.70
429;DHT22;201;48.758;9.290;2023-03-20T03:57:56;9.20;8.00
429;DHT22;201;48.758;9.290;2023-03-20T04:00:23;9.20;8.00
429;DHT22;201;48.758;9.290;2023-03-20T04:02:53;9.30;8.00
429;DHT22;201;48.758;9.290;2023-03-20T04:05:19;9.20;7.80
429;DHT22;201;48.758;9.290;2023-03-20T04:07:47;9.20;7.90
429;DHT22;201;48.758;9.290;2023-03-20T04:10:13;9.20;8.40
429;DHT22;201;48.758;9.290;2023-03-20T04:12:43;9.20;8.10
429;DHT22;201;48.758;9.290;2023-03-20T04:15:11;9.10;8.00
429;DHT22;201;48.758;9.290;2023-03-20T04:17:37;9.00;7.70
429;DHT22;201;48.758;9.290;2023-03-20T04:20:04;8.90;7.90
429;DHT22;201;48.758;9.290;2023-03-20T04:22:30;8.80;8.30
429;DHT22;201;48.758;9.290;2023-03-20T04:25:02;8.70;8.70
429;DHT22;201;48.758;9.290;2023-03-20T04:27:28;8.60;9.00
429;DHT22;201;48.758;9.290;2023-03-20T04:29:54;8.50;9.00
429;DHT22;201;48.758;9.290;2023-03-20T04:32:20;8.50;9.30
429;DHT22;201;48.758;9.290;2023-03-20T04:34:45;8.50;9.20
429;DHT22;201;48.758;9.290;2023-03-20T04:37:11;8.40;8.60
429;DHT22;201;48.758;9.290;2023-03-20T04:39:37;8.50;8.50
429;DHT22;201;48.758;9.290;2023-03-20T04:42:04;8.50;8.70
429;DHT22;201;48.758;9.290;2023-03-20T04:44:30;8.50;8.90
429;DHT22;201;48.758;9.290;2023-03-20T04:46:55;8.50;8.90
429;DHT22;201;48.758;9.290;2023-03-20T04:49:22;8.70;8.80
429;DHT22;201;48.758;9.290;2023-03-20T04:51:47;8.70;8.20
429;DHT22;201;48.758;9.290;2023-03-20T04:54:13;8.70;8.00
429;DHT22;201;48.758;9.290;2023-03-20T04:56:39;8.70;7.90
429;DHT22;201;48.758;9.290;2023-03-20T04:59:04;8.70;7.90
429;DHT22;201;48.758;9.290;2023-03-20T05:01:30;8.80;8.00
429;DHT22;201;48.758;9.290;2023-03-20T05:03:55;8.80;8.00
429;DHT22;201;48.758;9.290;2023-03-20T05:06:26;8.80;8.10
429;DHT22;201;48.758;9.290;2023-03-20T05:08:52;8.80;8.00
429;DHT22;201;48.758;9.290;2023-03-20T05:11:17;8.80;8.00
429;DHT22;201;48.758;9.290;2023-03-20T05:13:43;8.80;8.10
429;DHT22;201;48.758;9.290;2023-03-20T05:16:08;8.80;8.10
429;DHT22;201;48.758;9.290;2023-03-20T05:18:34;8.80;8.40
429;DHT22;201;48.758;9.290;2023-03-20T05:21:00;8.80;8.40
429;DHT22;201;48.758;9.290;2023-03-20T05:23:27;8.70;8.60
429;DHT22;201;48.758;9.290;2023-03-20T05:25:52;8.60;9.00
429;DHT22;201;48.758;9.290;2023-03-20T05:28:18;8.60;9.40
429;DHT22;201;48.758;9.290;2023-03-20T05:30:44;8.50;9.30
429;DHT22;201;48.758;9.290;2023-03-20T05:33:09;8.40;9.20
429;DHT22;201;48.758;9.290;2023-03-20T05:35:35;8.40;9.20
429;DHT22;201;48.758;9.290;2023-03-20T05:38:00;8.40;9.20
429;DHT22;201;48.758;9.290;2023-03-20T05:40:26;8.30;9.90
429;DHT22;201;48.758;9.290;2023-03-20T05:42:52;8.30;9.80
429;DHT22;201;48.758;9.290;2023-03-20T05:45:17;8.30;10.20
429;DHT22;201;48.758;9.290;2023-03-20T05:47:43;8.40;10.30
429;DHT22;201;48.758;9.290;2023-03-20T05:50:10;8.40;9.90
429;DHT22;201;48.758;9.290;2023-03-20T05:52:36;8.50;10.00
429;DHT22;201;48.758;9.290;2023-03-20T05:55:01;8.60;9.30
429;DHT22;201;48.758;9.290;2023-03-20T05:57:27;8.70;9.40
429;DHT22;201;48.758;9.290;2023-03-20T05:59:52;8.70;9.40
429;DHT22;201;48.758;9.290;2023-03-20T06:02:18;8.80;9.50
429;DHT22;201;48.758;9.290;2023-03-20T06:04:44;8.90;9.60
429;DHT22;201;48.758;9.290;2023-03-20T06:07:10;9.00;9.60
429;DHT22;201;48.758;9.290;2023-03-20T06:09:36;9.00;8.40
429;DHT22;201;48.758;9.290;2023-03-20T06:12:01;9.00;8.20
429;DHT22;201;48.758;9.290;2023-03-20T06:14:27;8.90;8.10
429;DHT22;201;48.758;9.290;2023-03-20T06:16:52;8.80;8.10
429;DHT22;201;48.758;9.290;2023-03-20T06:19:19;8.80;8.00
429;DHT22;201;48.758;9.290;2023-03-20T06:21:46;8.90;8.20
429;DHT22;201;48.758;9.290;2023-03-20T06:24:12;8.80;8.00
429;DHT22;201;48.758;9.290;2023-03-20T06:26:37;8.90;8.20
429;DHT22;201;48.758;9.290;2023-03-20T06:29:03;8.80;8.40
429;DHT22;201;48.758;9.290;2023-03-20T06:31:28;8.90;9.00
429;DHT22;201;48.758;9.290;2023-03-20T06:33:54;8.90;8.70
429;DHT22;201;48.758;9.290;2023-03-20T06:36:21;8.90;8.30
429;DHT22;201;48.758;9.290;2023-03-20T06:38:46;8.80;7.90
429;DHT22;201;48.758;9.290;2023-03-20T06:41:12;8.80;8.10
429;DHT22;201;48.758;9.290;2023-03-20T06:43:37;8.80;8.00
429;DHT22;201;48.758;9.290;2023-03-20T06:46:05;8.90;7.30
429;DHT22;201;48.758;9.290;2023-03-20T06:48:31;9.10;7.30
429;DHT22;201;48.758;9.290;2023-03-20T06:50:57;9.30;6.80
429;DHT22;201;48.758;9.290;2023-03-20T06:53:22;9.50;6.10
429;DHT22;201;48.758;9.290;2023-03-20T06:55:49;9.80;5.50
429;DHT22;201;48.758;9.290;2023-03-20T06:58:15;9.80;3.70
429;DHT22;201;48.758;9.290;2023-03-20T07:00:41;10.00;2.80
429;DHT22;201;48.758;9.290;2023-03-20T07:03:06;10.00;1.60
429;DHT22;201;48.758;9.290;2023-03-20T07:05:32;10.10;2.10
429;DHT22;201;48.758;9.290;2023-03-20T07:07:58;10.20;1.80
429;DHT22;201;48.758;9.290;2023-03-20T07:10:24;10.30;2.10
429;DHT22;201;48.758;9.290;2023-03-20T07:12:50;10.40;1.00
429;DHT22;201;48.758;9.290;2023-03-20T07:15:16;10.80;1.30
429;DHT22;201;48.758;9.290;2023-03-20T07:17:41;11.60;1.00
429;DHT22;201;48.758;9.290;2023-03-20T07:20:08;12.00;1.00
429;DHT22;201;48.758;9.290;2023-03-20T07:22:34;12.30;1.00
429;DHT22;201;48.758;9.290;2023-03-20T07:25:00;12.80;1.00
429;DHT22;201;48.758;9.290;2023-03-20T07:27:26;12.90;1.00
429;DHT22;201;48.758;9.290;2023-03-20T07:29:51;12.30;1.00
429;DHT22;201;48.758;9.290;2023-03-20T07:32:17;11.90;1.00
429;DHT22;201;48.758;9.290;2023-03-20T07:34:43;11.70;1.00
429;DHT22;201;48.758;9.290;2023-03-20T07:37:09;11.80;1.00
429;DHT22;201;48.758;9.290;2023-03-20T07:39:34;11.90;1.00
429;DHT22;201;48.758;9.290;2023-03-20T07:42:00;11.90;1.00
429;DHT22;201;48.758;9.290;2023-03-20T07:44:26;11.60;1.00
429;DHT22;201;48.758;9.290;2023-03-20T07:46:52;11.20;1.00
429;DHT22;201;48.758;9.290;2023-03-20T07:49:18;11.10;1.00
429;DHT22;201;48.758;9.290;2023-03-20T07:51:44;11.10;1.00
429;DHT22;201;48.758;9.290;2023-03-20T07:54:10;11.40;1.00
429;DHT22;201;48.758;9.290;2023-03-20T07:56:36;12.20;1.00
429;DHT22;201;48.758;9.290;2023-03-20T07:59:01;13.00;1.00
429;DHT22;201;48.758;9.290;2023-03-20T08:01:27;13.80;1.00
429;DHT22;201;48.758;9.290;2023-03-20T08:03:53;14.20;1.00
429;DHT22;201;48.758;9.290;2023-03-20T08:06:18;14.00;1.00
429;DHT22;201;48.758;9.290;2023-03-20T08:08:44;13.60;1.00
429;DHT22;201;48.758;9.290;2023-03-20T08:11:10;13.40;1.00
429;DHT22;201;48.758;9.290;2023-03-20T08:13:36;14.00;1.00
429;DHT22;201;48.758;9.290;2023-03-20T08:16:02;14.60;1.00
429;DHT22;201;48.758;9.290;2023-03-20T08:18:28;15.30;1.00
429;DHT22;201;48.758;9.290;2023-03-20T08:20:53;16.10;1.00
429;DHT22;201;48.758;9.290;2023-03-20T08:23:19;16.60;1.00
429;DHT22;201;48.758;9.290;2023-03-20T08:25:49;16.70;1.00
429;DHT22;201;48.758;9.290;2023-03-20T08:28:15;16.20;1.00
429;DHT22;201;48.758;9.290;2023-03-20T08:30:40;16.30;1.00
429;DHT22;201;48.758;9.290;2023-03-20T08:33:06;15.80;1.00
429;DHT22;201;48.758;9.290;2023-03-20T08:35:31;15.30;1.00
429;DHT22;201;48.758;9.290;2023-03-20T08:37:57;14.60;1.00
429;DHT22;201;48.758;9.290;2023-03-20T08:40:23;14.20;1.00
429;DHT22;201;48.758;9.290;2023-03-20T08:42:48;13.90;1.00
429;DHT22;201;48.758;9.290;2023-03-20T08:45:14;14.00;1.00
429;DHT22;201;48.758;9.290;2023-03-20T08:47:40;13.80;1.00
429;DHT22;201;48.758;9.290;2023-03-20T08:50:05;14.00;1.00
429;DHT22;201;48.758;9.290;2023-03-20T08:52:32;14.20;1.00
429;DHT22;201;48.758;9.290;2023-03-20T08:54:57;14.00;1.00
429;DHT22;201;48.758;9.290;2023-03-20T08:57:23;13.50;1.00
429;DHT22;201;48.758;9.290;2023-03-20T08:59:48;13.00;1.00
429;DHT22;201;48.758;9.290;2023-03-20T09:02:14;12.50;1.00
429;DHT22;201;48.758;9.290;2023-03-20T09:04:39;12.40;1.00
429;DHT22;201;48.758;9.290;2023-03-20T09:07:06;12.40;1.00
429;DHT22;201;48.758;9.290;2023-03-20T09:09:31;12.70;1.00
429;DHT22;201;48.758;9.290;2023-03-20T09:11:58;13.00;1.00
429;DHT22;201;48.758;9.290;2023-03-20T09:14:25;13.30;1.00
429;DHT22;201;48.758;9.290;2023-03-20T09:16:51;13.40;1.00
429;DHT22;201;48.758;9.290;2023-03-20T09:19:17;13.80;1.00
429;DHT22;201;48.758;9.290;2023-03-20T09:21:43;14.50;1.00
429;DHT22;201;48.758;9.290;2023-03-20T09:24:09;15.00;1.00
429;DHT22;201;48.758;9.290;2023-03-20T09:26:36;15.30;1.00
429;DHT22;201;48.758;9.290;2023-03-20T09:29:02;16.00;1.00
429;DHT22;201;48.758;9.290;2023-03-20T09:31:28;16.60;1.00
429;DHT22;201;48.758;9.290;2023-03-20T09:33:53;16.60;1.00
429;DHT22;201;48.758;9.290;2023-03-20T09:36:19;16.10;1.00
429;DHT22;201;48.758;9.290;2023-03-20T09:38:45;14.90;1.00
429;DHT22;201;48.758;9.290;2023-03-20T09:41:19;14.10;1.00
429;DHT22;201;48.758;9.290;2023-03-20T09:49:38;13.90;1.00
429;DHT22;201;48.758;9.290;2023-03-20T09:52:28;13.90;1.00
429;DHT22;201;48.758;9.290;2023-03-20T09:54:57;14.20;1.00
429;DHT22;201;48.758;9.290;2023-03-20T09:57:44;14.30;1.00
429;DHT22;201;48.758;9.290;2023-03-20T10:00:17;14.20;1.00
429;DHT22;201;48.758;9.290;2023-03-20T10:03:05;14.20;1.00
429;DHT22;201;48.758;9.290;2023-03-20T10:05:43;14.10;1.00
429;DHT22;201;48.758;9.290;2023-03-20T10:08:13;14.50;1.00
429;DHT22;201;48.758;9.290;2023-03-20T10:11:03;14.50;1.00
429;DHT22;201;48.758;9.290;2023-03-20T10:13:50;14.40;1.00
429;DHT22;201;48.758;9.290;2023-03-20T10:21:41;14.40;1.00
429;DHT22;201;48.758;9.290;2023-03-20T10:24:16;14.30;1.00
429;DHT22;201;48.758;9.290;2023-03-20T10:26:49;14.20;1.00
429;DHT22;201;48.758;9.290;2023-03-20T10:29:32;14.00;1.00
429;DHT22;201;48.758;9.290;2023-03-20T10:32:19;13.90;1.00
429;DHT22;201;48.758;9.290;2023-03-20T10:35:15;13.80;1.00
429;DHT22;201;48.758;9.290;2023-03-20T10:37:49;13.70;1.00
429;DHT22;201;48.758;9.290;2023-03-20T10:42:48;13.80;1.00
429;DHT22;201;48.758;9.290;2023-03-20T10:45:33;13.80;1.00
429;DHT22;201;48.758;9.290;2023-03-20T10:48:06;13.80;1.00
429;DHT22;201;48.758;9.290;2023-03-20T10:50:42;13.80;1.00
429;DHT22;201;48.758;9.290;2023-03-20T10:53:29;13.90;1.00
429;DHT22;201;48.758;9.290;2023-03-20T10:56:02;13.80;1.00
429;DHT22;201;48.758;9.290;2023-03-20T10:58:34;13.70;1.00
429;DHT22;201;48.758;9.290;2023-03-20T11:01:01;13.80;1.00
429;DHT22;201;48.758;9.290;2023-03-20T11:03:30;13.80;1.00
429;DHT22;201;48.758;9.290;2023-03-20T11:06:26;13.60;1.00
429;DHT22;201;48.758;9.290;2023-03-20T11:08:51;13.50;1.00
429;DHT22;201;48.758;9.290;2023-03-20T11:11:25;13.30;1.00
429;DHT22;201;48.758;9.290;2023-03-20T11:13:52;13.30;1.00
429;DHT22;201;48.758;9.290;2023-03-20T11:16:20;13.30;1.00
429;DHT22;201;48.758;9.290;2023-03-20T11:18:47;13.20;1.00
429;DHT22;201;48.758;9.290;2023-03-20T11:21:26;13.00;1.00
429;DHT22;201;48.758;9.290;2023-03-20T11:23:53;12.30;1.00
429;DHT22;201;48.758;9.290;2023-03-20T11:26:39;11.90;1.00
429;DHT22;201;48.758;9.290;2023-03-20T11:29:12;11.80;1.00
429;DHT22;201;48.758;9.290;2023-03-20T11:31:43;11.80;1.00
429;DHT22;201;48.758;9.290;2023-03-20T11:37:00;11.70;1.00
429;DHT22;201;48.758;9.290;2023-03-20T11:39:30;11.90;1.00
429;DHT22;201;48.758;9.290;2023-03-20T11:42:00;11.90;1.00
429;DHT22;201;48.758;9.290;2023-03-20T11:44:31;11.70;1.00
429;DHT22;201;48.758;9.290;2023-03-20T11:47:11;11.60;1.00
429;DHT22;201;48.758;9.290;2023-03-20T11:49:48;11.60;1.00
429;DHT22;201;48.758;9.290;2023-03-20T11:52:21;11.70;1.00
429;DHT22;201;48.758;9.290;2023-03-20T11:54:52;11.90;1.00
429;DHT22;201;48.758;9.290;2023-03-20T11:57:39;12.10;1.00
429;DHT22;201;48.758;9.290;2023-03-20T12:00:06;12.30;1.00
429;DHT22;201;48.758;9.290;2023-03-20T12:02:40;12.30;1.00
429;DHT22;201;48.758;9.290;2023-03-20T12:07:57;12.60;1.00
429;DHT22;201;48.758;9.290;2023-03-20T12:10:29;12.60;1.00
429;DHT22;201;48.758;9.290;2023-03-20T12:12:58;12.60;1.00
429;DHT22;201;48.758;9.290;2023-03-20T12:15:40;12.80;1.00
429;DHT22;201;48.758;9.290;2023-03-20T12:18:18;13.30;1.00
429;DHT22;201;48.758;9.290;2023-03-20T12:26:44;14.30;1.00
429;DHT22;201;48.758;9.290;2023-03-20T12:29:22;14.10;1.00
429;DHT22;201;48.758;9.290;2023-03-20T12:34:43;14.10;1.00
429;DHT22;201;48.758;9.290;2023-03-20T12:37:11;14.20;1.00
429;DHT22;201;48.758;9.290;2023-03-20T12:39:47;14.20;1.00
429;DHT22;201;48.758;9.290;2023-03-20T12:42:23;14.60;1.00
429;DHT22;201;48.758;9.290;2023-03-20T12:45:15;15.10;1.00
429;DHT22;201;48.758;9.290;2023-03-20T12:50:54;14.80;1.00
429;DHT22;201;48.758;9.290;2023-03-20T12:59:07;15.00;1.00
429;DHT22;201;48.758;9.290;2023-03-20T13:01:49;15.20;1.00
429;DHT22;201;48.758;9.290;2023-03-20T13:07:02;15.80;1.00
429;DHT22;201;48.758;9.290;2023-03-20T13:12:49;16.20;1.00
429;DHT22;201;48.758;9.290;2023-03-20T13:18:39;16.40;1.00
429;DHT22;201;48.758;9.290;2023-03-20T13:27:07;16.00;1.00
429;DHT22;201;48.758;9.290;2023-03-20T13:35:21;15.30;1.00
429;DHT22;201;48.758;9.290;2023-03-20T13:37:54;15.10;1.00
429;DHT22;201;48.758;9.290;2023-03-20T13:40:39;15.30;1.00
429;DHT22;201;48.758;9.290;2023-03-20T13:45:47;14.70;1.00
429;DHT22;201;48.758;9.290;2023-03-20T13:48:36;14.50;1.00
429;DHT22;201;48.758;9.290;2023-03-20T14:05:19;15.00;1.00
429;DHT22;201;48.758;9.290;2023-03-20T14:07:48;14.70;1.00
429;DHT22;201;48.758;9.290;2023-03-20T14:12:59;14.10;1.00
429;DHT22;201;48.758;9.290;2023-03-20T14:15:35;14.20;1.00
429;DHT22;201;48.758;9.290;2023-03-20T14:18:04;14.30;1.00
429;DHT22;201;48.758;9.290;2023-03-20T14:20:36;14.40;1.00
429;DHT22;201;48.758;9.290;2023-03-20T14:23:02;14.20;1.00
429;DHT22;201;48.758;9.290;2023-03-20T14:25:40;14.30;1.00
429;DHT22;201;48.758;9.290;2023-03-20T14:30:44;14.10;1.00
429;DHT22;201;48.758;9.290;2023-03-20T14:35:49;14.40;1.00
429;DHT22;201;48.758;9.290;2023-03-20T14:38:19;14.60;1.00
429;DHT22;201;48.758;9.290;2023-03-20T14:49:32;14.60;1.00
429;DHT22;201;48.758;9.290;2023-03-20T14:57:49;14.20;1.00
429;DHT22;201;48.758;9.290;2023-03-20T15:00:27;14.10;1.00
429;DHT22;201;48.758;9.290;2023-03-20T15:03:17;14.00;1.00
429;DHT22;201;48.758;9.290;2023-03-20T15:05:44;14.00;1.00
429;DHT22;201;48.758;9.290;2023-03-20T15:08:13;13.80;1.00
429;DHT22;201;48.758;9.290;2023-03-20T15:10:53;13.60;1.00
429;DHT22;201;48.758;9.290;2023-03-20T15:13:19;13.80;1.00
429;DHT22;201;48.758;9.290;2023-03-20T15:15:55;13.90;1.00
429;DHT22;201;48.758;9.290;2023-03-20T15:18:23;14.00;1.00
429;DHT22;201;48.758;9.290;2023-03-20T15:20:49;14.00;1.00
429;DHT22;201;48.758;9.290;2023-03-20T15:23:14;13.80;1.00
429;DHT22;201;48.758;9.290;2023-03-20T15:25:44;13.70;1.00
429;DHT22;201;48.758;9.290;2023-03-20T15:28:19;13.80;1.00
429;DHT22;201;48.758;9.290;2023-03-20T15:30:48;13.70;1.00
429;DHT22;201;48.758;9.290;2023-03-20T15:35:49;13.60;1.00
429;DHT22;201;48.758;9.290;2023-03-20T15:38:16;13.50;1.00
429;DHT22;201;48.758;9.290;2023-03-20T15:40:43;13.60;1.00
429;DHT22;201;48.758;9.290;2023-03-20T15:43:19;13.70;1.00
429;DHT22;201;48.758;9.290;2023-03-20T15:45:45;13.90;1.00
429;DHT22;201;48.758;9.290;2023-03-20T15:48:14;14.00;1.00
429;DHT22;201;48.758;9.290;2023-03-20T15:50:42;14.00;1.00
429;DHT22;201;48.758;9.290;2023-03-20T15:53:14;14.00;1.00
429;DHT22;201;48.758;9.290;2023-03-20T15:55:41;14.10;1.00
429;DHT22;201;48.758;9.290;2023-03-20T15:58:11;14.00;1.00
429;DHT22;201;48.758;9.290;2023-03-20T16:00:42;14.00;1.00
429;DHT22;201;48.758;9.290;2023-03-20T16:03:13;14.10;1.00
429;DHT22;201;48.758;9.290;2023-03-20T16:05:42;14.10;1.00
429;DHT22;201;48.758;9.290;2023-03-20T16:08:28;14.10;1.00
429;DHT22;201;48.758;9.290;2023-03-20T16:11:12;14.10;1.00
429;DHT22;201;48.758;9.290;2023-03-20T16:13:44;14.00;1.00
429;DHT22;201;48.758;9.290;2023-03-20T16:16:18;14.00;1.00
429;DHT22;201;48.758;9.290;2023-03-20T16:18:46;14.00;1.00
429;DHT22;201;48.758;9.290;2023-03-20T16:21:22;14.10;1.00
429;DHT22;201;48.758;9.290;2023-03-20T16:23:51;14.00;1.00
429;DHT22;201;48.758;9.290;2023-03-20T16:26:22;14.10;1.00
429;DHT22;201;48.758;9.290;2023-03-20T16:28:51;13.90;1.00
429;DHT22;201;48.758;9.290;2023-03-20T16:31:25;13.90;1.00
429;DHT22;201;48.758;9.290;2023-03-20T16:33:52;14.00;1.00
429;DHT22;201;48.758;9.290;2023-03-20T16:36:21;13.90;1.00
429;DHT22;201;48.758;9.290;2023-03-20T16:41:34;13.60;1.00
429;DHT22;201;48.758;9.290;2023-03-20T16:44:20;13.50;1.00
429;DHT22;201;48.758;9.290;2023-03-20T16:46:56;13.60;1.00
429;DHT22;201;48.758;9.290;2023-03-20T16:51:58;13.30;1.00
429;DHT22;201;48.758;9.290;2023-03-20T16:54:29;13.30;1.00
429;DHT22;201;48.758;9.290;2023-03-20T16:56:56;13.30;1.00
429;DHT22;201;48.758;9.290;2023-03-20T16:59:23;13.20;1.00
429;DHT22;201;48.758;9.290;2023-03-20T17:01:50;13.10;1.00
429;DHT22;201;48.758;9.290;2023-03-20T17:04:27;12.90;1.00
429;DHT22;201;48.758;9.290;2023-03-20T17:06:59;12.90;1.00
429;DHT22;201;48.758;9.290;2023-03-20T17:09:29;12.80;1.00
429;DHT22;201;48.758;9.290;2023-03-20T17:12:12;12.50;1.00
429;DHT22;201;48.758;9.290;2023-03-20T17:14:37;12.30;1.00
429;DHT22;201;48.758;9.290;2023-03-20T17:17:14;12.00;1.00
429;DHT22;201;48.758;9.290;2023-03-20T17:19:40;11.80;1.00
429;DHT22;201;48.758;9.290;2023-03-20T17:22:17;11.80;1.00
429;DHT22;201;48.758;9.290;2023-03-20T17:24:43;11.70;1.00
429;DHT22;201;48.758;9.290;2023-03-20T17:27:12;11.60;1.00
429;DHT22;201;48.758;9.290;2023-03-20T17:29:39;11.60;1.00
429;DHT22;201;48.758;9.290;2023-03-20T17:32:13;11.60;1.00
429;DHT22;201;48.758;9.290;2023-03-20T17:34:39;11.60;1.00
429;DHT22;201;48.758;9.290;2023-03-20T17:37:06;11.50;1.00
429;DHT22;201;48.758;9.290;2023-03-20T17:39:35;11.50;1.00
429;DHT22;201;48.758;9.290;2023-03-20T17:42:01;11.50;1.00
429;DHT22;201;48.758;9.290;2023-03-20T17:44:26;11.50;1.00
429;DHT22;201;48.758;9.290;2023-03-20T17:46:52;11.50;1.00
429;DHT22;201;48.758;9.290;2023-03-20T17:49:18;11.40;1.00
429;DHT22;201;48.758;9.290;2023-03-20T17:51:47;11.50;1.00
429;DHT22;201;48.758;9.290;2023-03-20T17:54:13;11.40;1.00
429;DHT22;201;48.758;9.290;2023-03-20T17:56:38;11.40;1.00
429;DHT22;201;48.758;9.290;2023-03-20T17:59:11;11.40;1.00
429;DHT22;201;48.758;9.290;2023-03-20T18:01:37;11.30;1.00
429;DHT22;201;48.758;9.290;2023-03-20T18:04:03;11.30;1.00
429;DHT22;201;48.758;9.290;2023-03-20T18:06:31;11.30;1.00
429;DHT22;201;48.758;9.290;2023-03-20T18:08:58;11.30;1.00
429;DHT22;201;48.758;9.290;2023-03-20T18:11:24;11.20;1.00
429;DHT22;201;48.758;9.290;2023-03-20T18:13:50;11.30;1.00
429;DHT22;201;48.758;9.290;2023-03-20T18:16:19;11.20;1.00
429;DHT22;201;48.758;9.290;2023-03-20T18:18:45;11.10;1.00
429;DHT22;201;48.758;9.290;2023-03-20T18:21:12;11.10;1.00
429;DHT22;201;48.758;9.290;2023-03-20T18:23:38;11.10;1.00
429;DHT22;201;48.758;9.290;2023-03-20T18:26:05;11.10;1.00
429;DHT22;201;48.758;9.290;2023-03-20T18:28:35;11.10;1.00
429;DHT22;201;48.758;9.290;2023-03-20T18:31:01;11.10;1.00
429;DHT22;201;48.758;9.290;2023-03-20T18:33:26;11.20;1.00
429;DHT22;201;48.758;9.290;2023-03-20T18:35:53;11.10;1.00
429;DHT22;201;48.758;9.290;2023-03-20T18:38:18;11.10;1.00
429;DHT22;201;48.758;9.290;2023-03-20T18:40:44;11.10;1.00
429;DHT22;201;48.758;9.290;2023-03-20T18:43:12;11.20;1.00
429;DHT22;201;48.758;9.290;2023-03-20T18:45:38;11.10;1.00
429;DHT22;201;48.758;9.290;2023-03-20T18:48:05;11.10;1.00
429;DHT22;201;48.758;9.290;2023-03-20T18:50:32;11.10;1.00
429;DHT22;201;48.758;9.290;2023-03-20T18:53:00;11.10;1.00
429;DHT22;201;48.758;9.290;2023-03-20T18:55:27;11.00;1.00
429;DHT22;201;48.758;9.290;2023-03-20T18:57:53;11.00;1.00
429;DHT22;201;48.758;9.290;2023-03-20T19:00:28;11.10;1.00
429;DHT22;201;48.758;9.290;2023-03-20T19:02:55;11.00;1.00
429;DHT22;201;48.758;9.290;2023-03-20T19:05:22;11.00;1.00
429;DHT22;201;48.758;9.290;2023-03-20T19:07:48;11.00;1.00
429;DHT22;201;48.758;9.290;2023-03-20T19:12:52;11.10;1.00
429;DHT22;201;48.758;9.290;2023-03-20T19:15:20;11.10;1.00
429;DHT22;201;48.758;9.290;2023-03-20T19:17:46;11.00;1.00
429;DHT22;201;48.758;9.290;2023-03-20T19:20:40;11.00;1.00
429;DHT22;201;48.758;9.290;2023-03-20T19:23:07;11.00;1.00
429;DHT22;201;48.758;9.290;2023-03-20T19:25:34;11.00;1.00
429;DHT22;201;48.758;9.290;2023-03-20T19:28:01;10.90;1.00
429;DHT22;201;48.758;9.290;2023-03-20T19:30:38;10.90;1.00
429;DHT22;201;48.758;9.290;2023-03-20T19:33:05;11.00;1.00
429;DHT22;201;48.758;9.290;2023-03-20T19:35:32;11.00;1.00